sensor_id;sensor_type;location;lat;lon;timestamp;P1;durP1;ratioP1;P2;durP2;ratioP2
31348;SDS011;17976;48.480;11.946;2023-06-22T06:00:58;11.48;;;5.60;;
31348;SDS011;17976;48.480;11.946;2023-06-22T06:03:25;13.43;;;6.25;;
31348;SDS011;17976;48.480;11.946;2023-06-22T06:05:53;15.00;;;5.78;;
31348;SDS011;17976;48.480;11.946;2023-06-22T06:08:19;18.20;;;6.05;;
31348;SDS011;17976;48.480;11.946;2023-06-22T06:10:45;15.93;;;6.10;;
31348;SDS011;17976;48.480;11.946;2023-06-22T06:13:11;14.40;;;5.60;;
31348;SDS011;17976;48.480;11.946;2023-06-22T06:15:37;14.30;;;6.30;;
31348;SDS011;17976;48.480;11.946;2023-06-22T06:18:03;13.43;;;5.97;;
31348;SDS011;17976;48.480;11.946;2023-06-22T06:20:31;12.38;;;5.97;;
31348;SDS011;17976;48.480;11.946;2023-06-22T06:22:57;15.80;;;6.00;;
31348;SDS011;17976;48.480;11.946;2023-06-22T06:25:23;11.05;;;5.28;;
31348;SDS011;17976;48.480;11.946;2023-06-22T06:27:49;14.07;;;5.65;;
31348;SDS011;17976;48.480;11.946;2023-06-22T06:30:16;10.32;;;4.72;;
31348;SDS011;17976;48.480;11.946;2023-06-22T06:32:43;9.05;;;4.60;;
31348;SDS011;17976;48.480;11.946;2023-06-22T06:35:10;14.18;;;5.00;;
31348;SDS011;17976;48.480;11.946;2023-06-22T06:37:37;9.60;;;4.72;;
31348;SDS011;17976;48.480;11.946;2023-06-22T06:40:03;9.80;;;4.57;;
31348;SDS011;17976;48.480;11.946;2023-06-22T06:42:35;13.10;;;4.97;;
31348;SDS011;17976;48.480;11.946;2023-06-22T06:45:02;8.73;;;4.30;;
31348;SDS011;17976;48.480;11.946;2023-06-22T06:47:28;13.82;;;4.68;;
31348;SDS011;17976;48.480;11.946;2023-06-22T06:49:54;10.68;;;4.40;;
31348;SDS011;17976;48.480;11.946;2023-06-22T06:52:20;9.15;;;3.83;;
31348;SDS011;17976;48.480;11.946;2023-06-22T06:54:46;9.73;;;3.83;;
31348;SDS011;17976;48.480;11.946;2023-06-22T06:57:12;8.93;;;3.45;;
31348;SDS011;17976;48.480;11.946;2023-06-22T06:59:40;10.15;;;3.72;;
31348;SDS011;17976;48.480;11.946;2023-06-22T07:02:06;9.23;;;3.85;;
31348;SDS011;17976;48.480;11.946;2023-06-22T07:04:32;9.85;;;4.20;;
31348;SDS011;17976;48.480;11.946;2023-06-22T07:07:00;11.15;;;3.40;;
31348;SDS011;17976;48.480;11.946;2023-06-22T07:09:26;11.15;;;3.45;;
31348;SDS011;17976;48.480;11.946;2023-06-22T07:11:52;8.18;;;2.97;;
31348;SDS011;17976;48.480;11.946;2023-06-22T07:14:18;11.23;;;3.97;;
31348;SDS011;17976;48.480;11.946;2023-06-22T07:16:44;8.18;;;3.20;;
31348;SDS011;17976;48.480;11.946;2023-06-22T07:19:13;11.40;;;3.80;;
31348;SDS011;17976;48.480;11.946;2023-06-22T07:21:39;7.22;;;3.10;;
31348;SDS011;17976;48.480;11.946;2023-06-22T07:24:06;7.28;;;2.60;;
31348;SDS011;17976;48.480;11.946;2023-06-22T07:26:32;10.43;;;2.97;;
31348;SDS011;17976;48.480;11.946;2023-06-22T07:28:58;6.15;;;2.78;;
31348;SDS011;17976;48.480;11.946;2023-06-22T07:31:24;7.57;;;2.92;;
31348;SDS011;17976;48.480;11.946;2023-06-22T07:33:50;7.68;;;2.55;;
31348;SDS011;17976;48.480;11.946;2023-06-22T07:36:16;7.85;;;2.83;;
31348;SDS011;17976;48.480;11.946;2023-06-22T07:38:42;5.13;;;2.88;;
31348;SDS011;17976;48.480;11.946;2023-06-22T07:41:10;7.25;;;2.85;;
31348;SDS011;17976;48.480;11.946;2023-06-22T07:43:36;10.30;;;2.83;;
31348;SDS011;17976;48.480;11.946;2023-06-22T07:46:02;6.32;;;2.80;;
31348;SDS011;17976;48.480;11.946;2023-06-22T07:48:28;5.35;;;2.70;;
31348;SDS011;17976;48.480;11.946;2023-06-22T07:50:54;5.65;;;2.75;;
31348;SDS011;17976;48.480;11.946;2023-06-22T07:53:21;6.00;;;2.53;;
31348;SDS011;17976;48.480;11.946;2023-06-22T07:55:48;8.40;;;2.78;;
31348;SDS011;17976;48.480;11.946;2023-06-22T07:58:14;7.13;;;2.55;;
31348;SDS011;17976;48.480;11.946;2023-06-22T08:00:40;9.90;;;3.10;;
31348;SDS011;17976;48.480;11.946;2023-06-22T08:03:06;8.85;;;3.28;;
31348;SDS011;17976;48.480;11.946;2023-06-22T08:05:32;7.57;;;3.33;;
31348;SDS011;17976;48.480;11.946;2023-06-22T08:07:58;7.95;;;2.60;;
31348;SDS011;17976;48.480;11.946;2023-06-22T08:10:24;9.63;;;3.05;;
31348;SDS011;17976;48.480;11.946;2023-06-22T08:12:50;8.15;;;2.72;;
31348;SDS011;17976;48.480;11.946;2023-06-22T08:15:17;8.60;;;2.40;;
31348;SDS011;17976;48.480;11.946;2023-06-22T08:17:43;8.85;;;3.30;;
31348;SDS011;17976;48.480;11.946;2023-06-22T08:20:10;7.07;;;3.30;;
31348;SDS011;17976;48.480;11.946;2023-06-22T08:22:37;7.18;;;2.92;;
31348;SDS011;17976;48.480;11.946;2023-06-22T08:25:03;7.05;;;2.80;;
31348;SDS011;17976;48.480;11.946;2023-06-22T08:27:30;18.88;;;3.13;;
31348;SDS011;17976;48.480;11.946;2023-06-22T08:29:59;6.07;;;3.17;;
31348;SDS011;17976;48.480;11.946;2023-06-22T08:32:28;7.40;;;2.80;;
31348;SDS011;17976;48.480;11.946;2023-06-22T08:34:54;5.68;;;2.88;;
31348;SDS011;17976;48.480;11.946;2023-06-22T08:37:21;14.05;;;3.25;;
31348;SDS011;17976;48.480;11.946;2023-06-22T08:39:55;11.45;;;3.00;;
31348;SDS011;17976;48.480;11.946;2023-06-22T08:42:21;7.00;;;2.88;;
31348;SDS011;17976;48.480;11.946;2023-06-22T08:44:48;11.52;;;3.42;;
31348;SDS011;17976;48.480;11.946;2023-06-22T08:47:14;8.98;;;3.00;;
31348;SDS011;17976;48.480;11.946;2023-06-22T08:49:40;8.55;;;2.80;;
31348;SDS011;17976;48.480;11.946;2023-06-22T08:52:06;7.53;;;3.20;;
31348;SDS011;17976;48.480;11.946;2023-06-22T08:54:32;8.57;;;2.80;;
31348;SDS011;17976;48.480;11.946;2023-06-22T08:56:59;9.70;;;3.05;;
31348;SDS011;17976;48.480;11.946;2023-06-22T08:59:25;8.25;;;3.08;;
31348;SDS011;17976;48.480;11.946;2023-06-22T09:01:51;8.02;;;2.65;;
31348;SDS011;17976;48.480;11.946;2023-06-22T09:04:17;10.50;;;2.97;;
31348;SDS011;17976;48.480;11.946;2023-06-22T09:06:43;14.18;;;3.85;;
31348;SDS011;17976;48.480;11.946;2023-06-22T09:09:12;7.80;;;3.17;;
31348;SDS011;17976;48.480;11.946;2023-06-22T09:11:38;11.23;;;3.33;;
31348;SDS011;17976;48.480;11.946;2023-06-22T09:14:04;11.05;;;3.03;;
31348;SDS011;17976;48.480;11.946;2023-06-22T09:16:30;10.20;;;2.85;;
31348;SDS011;17976;48.480;11.946;2023-06-22T09:18:56;9.18;;;3.45;;
31348;SDS011;17976;48.480;11.946;2023-06-22T09:21:22;7.53;;;3.13;;
31348;SDS011;17976;48.480;11.946;2023-06-22T09:23:48;14.68;;;3.53;;
31348;SDS011;17976;48.480;11.946;2023-06-22T09:26:18;10.75;;;3.47;;
31348;SDS011;17976;48.480;11.946;2023-06-22T09:28:44;8.45;;;2.90;;
31348;SDS011;17976;48.480;11.946;2023-06-22T09:31:10;8.52;;;2.80;;
31348;SDS011;17976;48.480;11.946;2023-06-22T09:33:36;7.85;;;2.97;;
31348;SDS011;17976;48.480;11.946;2023-06-22T09:36:03;11.60;;;3.33;;
31348;SDS011;17976;48.480;11.946;2023-06-22T09:38:30;10.45;;;3.05;;
31348;SDS011;17976;48.480;11.946;2023-06-22T09:40:56;8.38;;;2.80;;
31348;SDS011;17976;48.480;11.946;2023-06-22T09:43:22;13.23;;;4.30;;
31348;SDS011;17976;48.480;11.946;2023-06-22T09:45:48;7.38;;;3.20;;
31348;SDS011;17976;48.480;11.946;2023-06-22T09:48:13;13.25;;;3.67;;
31348;SDS011;17976;48.480;11.946;2023-06-22T09:50:40;7.55;;;2.90;;
31348;SDS011;17976;48.480;11.946;2023-06-22T09:53:06;7.10;;;3.10;;
31348;SDS011;17976;48.480;11.946;2023-06-22T09:55:32;9.52;;;3.17;;
31348;SDS011;17976;48.480;11.946;2023-06-22T09:57:58;7.18;;;3.13;;
31348;SDS011;17976;48.480;11.946;2023-06-22T10:00:24;12.90;;;3.00;;
31348;SDS011;17976;48.480;11.946;2023-06-22T10:02:51;8.57;;;3.40;;
31348;SDS011;17976;48.480;11.946;2023-06-22T10:05:17;12.15;;;3.05;;
31348;SDS011;17976;48.480;11.946;2023-06-22T10:07:43;11.35;;;3.00;;
31348;SDS011;17976;48.480;11.946;2023-06-22T10:10:10;7.43;;;3.10;;
31348;SDS011;17976;48.480;11.946;2023-06-22T10:12:37;9.90;;;3.03;;
31348;SDS011;17976;48.480;11.946;2023-06-22T10:15:03;10.13;;;3.15;;
31348;SDS011;17976;48.480;11.946;2023-06-22T10:17:32;8.02;;;3.05;;
31348;SDS011;17976;48.480;11.946;2023-06-22T10:19:58;4.38;;;2.78;;
31348;SDS011;17976;48.480;11.946;2023-06-22T10:22:25;6.72;;;2.92;;
31348;SDS011;17976;48.480;11.946;2023-06-22T10:24:51;6.20;;;2.88;;
31348;SDS011;17976;48.480;11.946;2023-06-22T10:27:17;8.90;;;3.17;;
31348;SDS011;17976;48.480;11.946;2023-06-22T10:29:43;6.53;;;2.53;;
31348;SDS011;17976;48.480;11.946;2023-06-22T10:32:09;12.00;;;3.30;;
31348;SDS011;17976;48.480;11.946;2023-06-22T10:34:35;11.57;;;3.13;;
31348;SDS011;17976;48.480;11.946;2023-06-22T10:37:01;5.93;;;3.10;;
31348;SDS011;17976;48.480;11.946;2023-06-22T10:39:27;9.40;;;3.08;;
31348;SDS011;17976;48.480;11.946;2023-06-22T10:41:53;7.65;;;3.20;;
31348;SDS011;17976;48.480;11.946;2023-06-22T10:44:20;9.60;;;3.17;;
31348;SDS011;17976;48.480;11.946;2023-06-22T10:46:46;6.80;;;2.72;;
31348;SDS011;17976;48.480;11.946;2023-06-22T10:49:12;7.00;;;2.88;;
31348;SDS011;17976;48.480;11.946;2023-06-22T10:51:38;14.35;;;3.03;;
31348;SDS011;17976;48.480;11.946;2023-06-22T10:54:04;9.60;;;3.35;;
31348;SDS011;17976;48.480;11.946;2023-06-22T10:56:30;15.02;;;3.35;;
31348;SDS011;17976;48.480;11.946;2023-06-22T10:58:58;8.90;;;3.13;;
31348;SDS011;17976;48.480;11.946;2023-06-22T11:01:24;17.83;;;6.90;;
31348;SDS011;17976;48.480;11.946;2023-06-22T11:03:50;8.77;;;3.22;;
31348;SDS011;17976;48.480;11.946;2023-06-22T11:06:16;7.15;;;3.20;;
31348;SDS011;17976;48.480;11.946;2023-06-22T11:08:43;10.95;;;3.33;;
31348;SDS011;17976;48.480;11.946;2023-06-22T11:11:10;8.27;;;3.30;;
31348;SDS011;17976;48.480;11.946;2023-06-22T11:13:36;11.02;;;3.30;;
31348;SDS011;17976;48.480;11.946;2023-06-22T11:16:02;15.95;;;3.60;;
31348;SDS011;17976;48.480;11.946;2023-06-22T11:18:28;8.48;;;3.35;;
31348;SDS011;17976;48.480;11.946;2023-06-22T11:20:54;8.82;;;3.78;;
31348;SDS011;17976;48.480;11.946;2023-06-22T11:23:20;11.98;;;3.15;;
31348;SDS011;17976;48.480;11.946;2023-06-22T11:25:45;9.93;;;3.25;;
31348;SDS011;17976;48.480;11.946;2023-06-22T11:28:11;10.27;;;3.75;;
31348;SDS011;17976;48.480;11.946;2023-06-22T11:30:37;11.18;;;3.58;;
31348;SDS011;17976;48.480;11.946;2023-06-22T11:33:03;12.32;;;3.72;;
31348;SDS011;17976;48.480;11.946;2023-06-22T11:35:29;12.77;;;3.42;;
31348;SDS011;17976;48.480;11.946;2023-06-22T11:37:55;12.35;;;3.42;;
31348;SDS011;17976;48.480;11.946;2023-06-22T11:40:21;12.07;;;3.28;;
31348;SDS011;17976;48.480;11.946;2023-06-22T11:42:47;8.18;;;3.15;;
31348;SDS011;17976;48.480;11.946;2023-06-22T11:45:13;12.25;;;3.38;;
31348;SDS011;17976;48.480;11.946;2023-06-22T11:47:39;18.23;;;9.02;;
31348;SDS011;17976;48.480;11.946;2023-06-22T11:50:06;8.98;;;4.13;;
31348;SDS011;17976;48.480;11.946;2023-06-22T11:52:32;14.85;;;4.20;;
31348;SDS011;17976;48.480;11.946;2023-06-22T11:54:58;12.15;;;3.28;;
31348;SDS011;17976;48.480;11.946;2023-06-22T11:57:24;12.02;;;3.80;;
31348;SDS011;17976;48.480;11.946;2023-06-22T11:59:50;10.98;;;3.83;;
31348;SDS011;17976;48.480;11.946;2023-06-22T12:02:16;12.35;;;3.85;;
31348;SDS011;17976;48.480;11.946;2023-06-22T12:04:42;11.30;;;3.97;;
31348;SDS011;17976;48.480;11.946;2023-06-22T12:07:08;11.55;;;3.75;;
31348;SDS011;17976;48.480;11.946;2023-06-22T12:09:34;12.98;;;3.33;;
31348;SDS011;17976;48.480;11.946;2023-06-22T12:12:00;13.80;;;3.42;;
31348;SDS011;17976;48.480;11.946;2023-06-22T12:14:26;13.23;;;3.85;;
31348;SDS011;17976;48.480;11.946;2023-06-22T12:16:52;15.32;;;3.30;;
31348;SDS011;17976;48.480;11.946;2023-06-22T12:19:18;12.68;;;3.70;;
31348;SDS011;17976;48.480;11.946;2023-06-22T12:21:44;12.80;;;3.70;;
31348;SDS011;17976;48.480;11.946;2023-06-22T12:24:10;13.45;;;4.00;;
31348;SDS011;17976;48.480;11.946;2023-06-22T12:26:36;15.23;;;3.67;;
31348;SDS011;17976;48.480;11.946;2023-06-22T12:29:02;14.35;;;3.13;;
31348;SDS011;17976;48.480;11.946;2023-06-22T12:31:28;8.23;;;3.35;;
31348;SDS011;17976;48.480;11.946;2023-06-22T12:33:54;9.80;;;3.63;;
31348;SDS011;17976;48.480;11.946;2023-06-22T12:36:20;11.70;;;3.80;;
31348;SDS011;17976;48.480;11.946;2023-06-22T12:38:46;14.05;;;4.22;;
31348;SDS011;17976;48.480;11.946;2023-06-22T12:41:12;11.25;;;3.75;;
31348;SDS011;17976;48.480;11.946;2023-06-22T12:43:38;9.65;;;4.28;;
31348;SDS011;17976;48.480;11.946;2023-06-22T12:46:04;14.57;;;3.80;;
31348;SDS011;17976;48.480;11.946;2023-06-22T12:48:30;12.60;;;3.75;;
31348;SDS011;17976;48.480;11.946;2023-06-22T12:50:56;9.55;;;3.50;;
31348;SDS011;17976;48.480;11.946;2023-06-22T12:53:22;11.32;;;3.47;;
31348;SDS011;17976;48.480;11.946;2023-06-22T12:55:48;13.90;;;3.35;;
31348;SDS011;17976;48.480;11.946;2023-06-22T12:58:14;11.85;;;3.53;;
31348;SDS011;17976;48.480;11.946;2023-06-22T13:00:40;11.85;;;3.63;;
31348;SDS011;17976;48.480;11.946;2023-06-22T13:03:06;11.57;;;3.72;;
31348;SDS011;17976;48.480;11.946;2023-06-22T13:05:32;16.45;;;4.03;;
31348;SDS011;17976;48.480;11.946;2023-06-22T13:07:59;12.68;;;3.95;;
31348;SDS011;17976;48.480;11.946;2023-06-22T13:10:25;18.48;;;4.13;;
31348;SDS011;17976;48.480;11.946;2023-06-22T13:12:51;12.10;;;3.67;;
31348;SDS011;17976;48.480;11.946;2023-06-22T13:17:51;14.88;;;3.97;;
31348;SDS011;17976;48.480;11.946;2023-06-22T13:20:17;10.00;;;4.10;;
31348;SDS011;17976;48.480;11.946;2023-06-22T13:22:43;12.13;;;3.58;;
31348;SDS011;17976;48.480;11.946;2023-06-22T13:25:09;12.95;;;3.95;;
31348;SDS011;17976;48.480;11.946;2023-06-22T13:27:37;11.07;;;3.92;;
31348;SDS011;17976;48.480;11.946;2023-06-22T13:30:03;13.68;;;4.13;;
31348;SDS011;17976;48.480;11.946;2023-06-22T13:32:29;18.13;;;4.45;;
31348;SDS011;17976;48.480;11.946;2023-06-22T13:34:55;16.98;;;4.43;;
31348;SDS011;17976;48.480;11.946;2023-06-22T13:37:21;20.23;;;4.28;;
31348;SDS011;17976;48.480;11.946;2023-06-22T13:39:47;13.07;;;4.13;;
31348;SDS011;17976;48.480;11.946;2023-06-22T13:42:13;15.27;;;3.78;;
31348;SDS011;17976;48.480;11.946;2023-06-22T13:44:39;17.98;;;4.55;;
31348;SDS011;17976;48.480;11.946;2023-06-22T13:47:05;20.15;;;3.80;;
31348;SDS011;17976;48.480;11.946;2023-06-22T13:49:32;12.02;;;3.80;;
31348;SDS011;17976;48.480;11.946;2023-06-22T13:51:58;15.32;;;3.90;;
31348;SDS011;17976;48.480;11.946;2023-06-22T13:54:24;15.30;;;3.90;;
31348;SDS011;17976;48.480;11.946;2023-06-22T13:56:50;13.35;;;3.70;;
31348;SDS011;17976;48.480;11.946;2023-06-22T13:59:16;14.43;;;3.97;;
31348;SDS011;17976;48.480;11.946;2023-06-22T14:01:42;18.17;;;4.65;;
31348;SDS011;17976;48.480;11.946;2023-06-22T14:04:08;15.45;;;4.13;;
31348;SDS011;17976;48.480;11.946;2023-06-22T14:06:34;17.63;;;4.10;;
31348;SDS011;17976;48.480;11.946;2023-06-22T14:09:00;10.40;;;3.97;;
31348;SDS011;17976;48.480;11.946;2023-06-22T14:11:26;18.45;;;4.18;;
31348;SDS011;17976;48.480;11.946;2023-06-22T14:13:52;17.08;;;4.35;;
31348;SDS011;17976;48.480;11.946;2023-06-22T14:16:18;10.82;;;5.13;;
31348;SDS011;17976;48.480;11.946;2023-06-22T14:18:44;11.98;;;4.05;;
31348;SDS011;17976;48.480;11.946;2023-06-22T14:21:10;11.10;;;3.92;;
31348;SDS011;17976;48.480;11.946;2023-06-22T14:23:36;17.98;;;4.00;;
31348;SDS011;17976;48.480;11.946;2023-06-22T14:26:03;12.30;;;4.30;;
31348;SDS011;17976;48.480;11.946;2023-06-22T14:28:29;12.88;;;3.50;;
31348;SDS011;17976;48.480;11.946;2023-06-22T14:30:55;17.27;;;4.18;;
31348;SDS011;17976;48.480;11.946;2023-06-22T14:33:21;13.75;;;3.85;;
31348;SDS011;17976;48.480;11.946;2023-06-22T14:35:47;17.02;;;4.63;;
31348;SDS011;17976;48.480;11.946;2023-06-22T14:38:14;10.35;;;4.03;;
31348;SDS011;17976;48.480;11.946;2023-06-22T14:40:40;15.18;;;4.28;;
31348;SDS011;17976;48.480;11.946;2023-06-22T14:43:06;13.23;;;4.07;;
31348;SDS011;17976;48.480;11.946;2023-06-22T14:45:32;13.07;;;4.28;;
31348;SDS011;17976;48.480;11.946;2023-06-22T14:47:57;12.70;;;4.07;;
31348;SDS011;17976;48.480;11.946;2023-06-22T14:50:23;13.32;;;4.10;;
31348;SDS011;17976;48.480;11.946;2023-06-22T14:52:49;16.73;;;3.97;;
31348;SDS011;17976;48.480;11.946;2023-06-22T14:55:15;13.82;;;3.72;;
31348;SDS011;17976;48.480;11.946;2023-06-22T14:57:41;10.27;;;3.67;;
31348;SDS011;17976;48.480;11.946;2023-06-22T15:00:07;25.88;;;4.43;;
31348;SDS011;17976;48.480;11.946;2023-06-22T15:02:33;19.35;;;4.32;;
31348;SDS011;17976;48.480;11.946;2023-06-22T15:04:59;15.57;;;4.25;;
31348;SDS011;17976;48.480;11.946;2023-06-22T15:07:25;19.05;;;3.95;;
31348;SDS011;17976;48.480;11.946;2023-06-22T15:09:51;19.85;;;4.63;;
31348;SDS011;17976;48.480;11.946;2023-06-22T15:12:17;20.40;;;3.83;;
31348;SDS011;17976;48.480;11.946;2023-06-22T15:14:43;10.68;;;3.67;;
31348;SDS011;17976;48.480;11.946;2023-06-22T15:17:09;11.55;;;3.58;;
31348;SDS011;17976;48.480;11.946;2023-06-22T15:19:36;15.13;;;3.92;;
31348;SDS011;17976;48.480;11.946;2023-06-22T15:22:05;13.18;;;3.65;;
31348;SDS011;17976;48.480;11.946;2023-06-22T15:24:31;19.58;;;4.45;;
31348;SDS011;17976;48.480;11.946;2023-06-22T15:26:58;11.05;;;3.58;;
31348;SDS011;17976;48.480;11.946;2023-06-22T15:29:24;11.65;;;3.90;;
31348;SDS011;17976;48.480;11.946;2023-06-22T15:31:51;13.82;;;4.15;;
31348;SDS011;17976;48.480;11.946;2023-06-22T15:34:17;14.18;;;3.83;;
31348;SDS011;17976;48.480;11.946;2023-06-22T15:36:43;13.98;;;3.58;;
31348;SDS011;17976;48.480;11.946;2023-06-22T15:39:09;10.98;;;3.72;;
